createdAt,value
2019-04-07T00:02:03.728Z,42.47
2019-04-07T00:04:33.069Z,40.83
2019-04-07T00:07:02.334Z,41.60
2019-04-07T00:09:32.101Z,41.03
2019-04-07T00:12:01.967Z,40.37
2019-04-07T00:14:31.755Z,39.43
2019-04-07T00:17:01.796Z,39.40
2019-04-07T00:19:31.584Z,38.93
2019-04-07T00:22:01.749Z,41.67
2019-04-07T00:24:31.558Z,38.70
2019-04-07T00:27:01.385Z,41.17
2019-04-07T00:29:31.118Z,40.47
2019-04-07T00:32:00.902Z,39.17
2019-04-07T00:34:30.283Z,40.73
2019-04-07T00:37:00.019Z,39.57
2019-04-07T00:39:29.622Z,40.27
2019-04-07T00:41:59.223Z,39.47
2019-04-07T00:44:29.107Z,39.30
2019-04-07T00:46:58.676Z,41.63
2019-04-07T00:49:28.137Z,41.93
2019-04-07T00:51:58.587Z,41.90
2019-04-07T00:54:28.261Z,42.90
2019-04-07T00:56:57.801Z,41.13
2019-04-07T00:59:27.071Z,41.00
2019-04-07T01:01:56.766Z,42.67
2019-04-07T01:04:26.527Z,41.27
2019-04-07T01:06:56.014Z,41.10
2019-04-07T01:09:25.769Z,43.87
2019-04-07T01:11:55.068Z,45.20
2019-04-07T01:14:24.771Z,44.63
2019-04-07T01:16:54.532Z,46.77
2019-04-07T01:19:24.374Z,43.83
2019-04-07T01:21:53.732Z,47.20
2019-04-07T01:24:23.270Z,45.83
2019-04-07T01:26:52.621Z,47.17
2019-04-07T01:29:21.927Z,45.23
2019-04-07T01:31:51.752Z,45.27
2019-04-07T01:34:21.077Z,44.63
2019-04-07T01:36:50.356Z,45.53
2019-04-07T01:39:19.844Z,42.83
2019-04-07T01:41:56.202Z,45.07
2019-04-07T01:44:50.684Z,46.90
2019-04-07T01:47:28.860Z,47.60
2019-04-07T01:50:15.932Z,45.63
2019-04-07T01:52:54.527Z,46.20
2019-04-07T01:55:43.377Z,47.23
2019-04-07T01:58:25.305Z,48.10
2019-04-07T02:01:14.185Z,51.33
2019-04-07T02:04:05.935Z,50.93
2019-04-07T02:07:07.325Z,50.50
2019-04-07T02:10:05.422Z,46.37
2019-04-07T02:12:53.762Z,45.10
2019-04-07T02:15:38.227Z,42.60
2019-04-07T02:18:14.630Z,44.80
2019-04-07T02:21:20.699Z,43.87
2019-04-07T02:24:12.864Z,46.10
2019-04-07T02:27:01.831Z,43.53
2019-04-07T02:29:59.962Z,44.50
2019-04-07T02:32:44.131Z,44.03
2019-04-07T02:35:31.875Z,45.33
2019-04-07T02:38:17.640Z,44.13
2019-04-07T02:41:01.837Z,44.57
2019-04-07T02:43:44.657Z,42.63
2019-04-07T02:46:42.301Z,44.80
2019-04-07T02:49:32.243Z,43.33
2019-04-07T02:52:25.543Z,46.20
2019-04-07T02:55:13.033Z,43.40
2019-04-07T02:57:59.969Z,44.47
2019-04-07T03:00:39.288Z,45.97
2019-04-07T03:03:20.733Z,44.67
2019-04-07T03:06:37.785Z,43.50
2019-04-07T03:09:18.458Z,44.63
2019-04-07T03:12:10.386Z,43.93
2019-04-07T03:15:02.979Z,45.20
2019-04-07T03:17:41.512Z,45.03
2019-04-07T03:20:25.274Z,46.40
2019-04-07T03:23:20.337Z,43.93
2019-04-07T03:25:56.721Z,42.50
2019-04-07T03:28:55.664Z,41.63
2019-04-07T03:31:56.886Z,40.23
2019-04-07T03:34:46.884Z,40.20
2019-04-07T03:37:38.708Z,39.37
2019-04-07T03:40:22.993Z,39.17
2019-04-07T03:43:07.072Z,39.70
2019-04-07T03:45:55.366Z,41.63
2019-04-07T03:48:38.091Z,41.87
2019-04-07T03:51:19.045Z,45.07
2019-04-07T03:54:02.914Z,47.77
2019-04-07T03:56:41.680Z,47.17
2019-04-07T03:59:24.908Z,48.33
2019-04-07T04:02:17.954Z,48.47
2019-04-07T04:05:09.321Z,47.67
2019-04-07T04:07:47.563Z,49.03
2019-04-07T04:10:24.531Z,47.60
2019-04-07T04:13:12.257Z,48.20
2019-04-07T04:15:53.195Z,44.70
2019-04-07T04:18:22.655Z,48.10
2019-04-07T04:20:52.747Z,46.93
2019-04-07T04:23:22.504Z,44.30
2019-04-07T04:25:52.445Z,47.70
2019-04-07T04:28:22.007Z,45.97
2019-04-07T04:30:52.296Z,47.27
2019-04-07T04:33:21.665Z,44.57
2019-04-07T04:35:51.880Z,44.00
2019-04-07T04:38:21.435Z,42.37
2019-04-07T04:40:50.763Z,42.97
2019-04-07T04:43:20.119Z,39.57
2019-04-07T04:45:50.398Z,41.13
2019-04-07T04:48:19.853Z,41.27
2019-04-07T04:50:49.279Z,40.43
2019-04-07T04:53:19.649Z,40.90
2019-04-07T04:55:48.916Z,40.17
2019-04-07T04:58:18.265Z,37.90
2019-04-07T05:00:48.483Z,40.93
2019-04-07T05:03:18.188Z,39.93
2019-04-07T05:05:47.773Z,38.33
2019-04-07T05:08:17.647Z,35.53
2019-04-07T05:10:47.315Z,33.17
2019-04-07T05:13:16.924Z,32.40
2019-04-07T05:15:46.867Z,32.03
2019-04-07T05:18:16.558Z,29.73
2019-04-07T05:20:45.918Z,32.50
2019-04-07T05:23:15.456Z,32.37
2019-04-07T05:25:44.965Z,31.37
2019-04-07T05:28:14.211Z,31.40
2019-04-07T05:30:43.672Z,30.43
2019-04-07T05:33:13.434Z,32.07
2019-04-07T05:35:44.099Z,29.40
2019-04-07T05:38:13.639Z,31.07
2019-04-07T05:40:43.286Z,31.50
2019-04-07T05:43:12.546Z,32.67
2019-04-07T05:45:42.163Z,31.83
2019-04-07T05:48:11.478Z,32.30
2019-04-07T05:50:40.806Z,31.43
2019-04-07T05:53:13.619Z,32.40
2019-04-07T05:55:41.284Z,32.10
2019-04-07T05:58:10.674Z,33.13
2019-04-07T06:00:41.445Z,32.17
2019-04-07T06:03:11.242Z,33.40
2019-04-07T06:05:40.970Z,32.17
2019-04-07T06:08:22.435Z,32.93
2019-04-07T06:10:41.620Z,35.03
2019-04-07T06:13:13.199Z,33.47
2019-04-07T06:15:42.175Z,33.37
2019-04-07T06:18:11.801Z,34.10
2019-04-07T06:20:44.094Z,33.73
2019-04-07T06:23:12.853Z,32.90
2019-04-07T06:25:44.010Z,31.60
2019-04-07T06:28:16.336Z,31.10
2019-04-07T06:30:44.962Z,31.23
2019-04-07T06:33:14.293Z,28.50
2019-04-07T06:35:44.995Z,29.57
2019-04-07T06:38:15.554Z,28.47
2019-04-07T06:40:44.921Z,28.30
2019-04-07T06:43:14.571Z,29.93
2019-04-07T06:46:01.769Z,28.10
2019-04-07T06:48:31.041Z,28.33
2019-04-07T06:51:06.040Z,27.87
2019-04-07T06:53:57.885Z,28.40
2019-04-07T06:57:05.032Z,28.57
2019-04-07T07:00:01.225Z,29.33
2019-04-07T07:02:40.745Z,30.63
2019-04-07T07:05:27.883Z,30.73
2019-04-07T07:08:07.309Z,31.30
2019-04-07T07:10:54.303Z,31.53
2019-04-07T07:13:52.092Z,29.63
2019-04-07T07:16:49.967Z,29.00
2019-04-07T07:19:41.257Z,26.53
2019-04-07T07:22:16.582Z,26.37
2019-04-07T07:24:47.301Z,25.93
2019-04-07T07:27:17.562Z,25.97
2019-04-07T07:29:47.725Z,25.73
2019-04-07T07:32:18.096Z,24.73
2019-04-07T07:34:47.744Z,24.33
2019-04-07T07:37:17.118Z,25.20
2019-04-07T07:39:47.099Z,25.80
2019-04-07T07:42:19.068Z,25.43
2019-04-07T07:44:48.444Z,25.07
2019-04-07T07:47:20.887Z,24.57
2019-04-07T07:49:49.760Z,24.53
2019-04-07T07:52:21.023Z,25.67
2019-04-07T07:54:50.839Z,24.80
2019-04-07T07:57:23.460Z,25.03
2019-04-07T07:59:52.075Z,24.10
2019-04-07T08:02:21.990Z,23.83
2019-04-07T08:04:52.761Z,24.23
2019-04-07T08:07:22.506Z,23.25
2019-04-07T08:09:54.358Z,23.47
2019-04-07T08:12:23.752Z,23.90
2019-04-07T08:14:56.079Z,23.00
2019-04-07T08:17:24.810Z,22.90
2019-04-07T08:19:54.090Z,23.57
2019-04-07T08:22:30.673Z,22.48
2019-04-07T08:24:54.645Z,21.73
2019-04-07T08:27:24.621Z,22.30
2019-04-07T08:29:54.877Z,24.02
2019-04-07T08:32:25.895Z,22.50
2019-04-07T08:34:55.924Z,22.07
2019-04-07T08:37:25.465Z,22.00
2019-04-07T08:39:56.981Z,21.00
2019-04-07T08:42:25.757Z,20.85
2019-04-07T08:44:57.241Z,20.25
2019-04-07T08:47:26.100Z,20.90
2019-04-07T08:49:57.681Z,20.32
2019-04-07T08:52:27.134Z,21.23
2019-04-07T08:54:56.672Z,20.70
2019-04-07T08:57:29.283Z,21.47
2019-04-07T08:59:57.548Z,20.43
2019-04-07T09:02:29.285Z,20.90
2019-04-07T09:04:58.342Z,20.07
2019-04-07T09:07:27.685Z,21.57
2019-04-07T09:09:57.808Z,20.93
2019-04-07T09:12:29.359Z,21.07
2019-04-07T09:14:58.399Z,21.60
2019-04-07T09:17:56.638Z,20.47
2019-04-07T09:20:34.602Z,20.50
2019-04-07T09:23:20.135Z,21.90
2019-04-07T09:26:19.920Z,21.07
2019-04-07T09:28:55.762Z,21.23
2019-04-07T09:31:39.890Z,20.30
2019-04-07T09:34:20.073Z,20.90
2019-04-07T09:37:17.388Z,21.43
2019-04-07T09:40:17.432Z,20.40
2019-04-07T09:43:13.719Z,21.17
2019-04-07T09:46:02.838Z,21.27
2019-04-07T09:49:04.582Z,19.57
2019-04-07T09:51:49.532Z,20.03
2019-04-07T09:54:36.187Z,19.63
2019-04-07T09:57:42.857Z,20.00
2019-04-07T10:00:25.889Z,19.40
2019-04-07T10:03:15.177Z,19.10
2019-04-07T10:05:54.661Z,20.47
2019-04-07T10:08:43.337Z,19.17
2019-04-07T10:11:40.782Z,19.90
2019-04-07T10:14:27.759Z,19.17
2019-04-07T10:17:18.892Z,19.80
2019-04-07T10:20:07.462Z,19.77
2019-04-07T10:22:58.421Z,20.33
2019-04-07T10:25:46.836Z,19.87
2019-04-07T10:28:39.148Z,19.50
2019-04-07T10:31:31.668Z,19.67
2019-04-07T10:34:32.006Z,20.67
2019-04-07T10:37:18.855Z,19.70
2019-04-07T10:40:08.063Z,19.50
2019-04-07T10:42:46.036Z,21.10
2019-04-07T10:45:29.626Z,19.47
2019-04-07T10:48:18.051Z,20.67
2019-04-07T10:50:57.787Z,20.17
2019-04-07T10:53:49.361Z,19.80
2019-04-07T10:56:36.076Z,20.30
2019-04-07T10:59:25.596Z,21.13
2019-04-07T11:02:32.065Z,20.37
2019-04-07T11:05:20.586Z,19.87
2019-04-07T11:08:02.485Z,21.03
2019-04-07T11:10:48.625Z,18.80
2019-04-07T11:13:46.944Z,20.17
2019-04-07T11:16:42.083Z,19.73
2019-04-07T11:19:20.595Z,19.30
2019-04-07T11:22:21.847Z,18.67
2019-04-07T11:25:07.504Z,19.50
2019-04-07T11:27:59.503Z,19.37
2019-04-07T11:30:57.450Z,20.10
2019-04-07T11:33:52.566Z,24.50
2019-04-07T11:36:40.996Z,20.47
2019-04-07T11:39:39.013Z,19.77
2019-04-07T11:42:33.553Z,20.30
2019-04-07T11:45:34.483Z,20.87
2019-04-07T11:48:17.551Z,20.07
2019-04-07T11:50:52.855Z,20.07
2019-04-07T11:53:47.860Z,20.57
2019-04-07T11:56:37.134Z,20.47
2019-04-07T11:59:26.251Z,20.37
2019-04-07T12:02:18.633Z,21.97
2019-04-07T12:05:13.460Z,19.60
2019-04-07T12:08:05.091Z,20.80
2019-04-07T12:11:13.610Z,21.00
2019-04-07T12:13:58.770Z,20.43
2019-04-07T12:16:43.689Z,19.43
2019-04-07T12:19:32.235Z,20.07
2019-04-07T12:22:35.881Z,19.47
2019-04-07T12:25:40.231Z,20.80
2019-04-07T12:28:19.076Z,20.17
2019-04-07T12:30:58.880Z,20.70
2019-04-07T12:33:43.885Z,19.30
2019-04-07T12:36:30.507Z,20.00
2019-04-07T12:39:18.863Z,19.57
2019-04-07T12:42:22.404Z,19.83
2019-04-07T12:45:03.642Z,19.33
2019-04-07T12:47:50.504Z,19.90
2019-04-07T12:50:49.000Z,19.60
2019-04-07T12:53:41.137Z,19.60
2019-04-07T12:56:31.747Z,18.40
2019-04-07T12:59:23.879Z,20.03
2019-04-07T13:02:19.976Z,19.73
2019-04-07T13:05:17.517Z,19.17
2019-04-07T13:08:24.130Z,19.57
2019-04-07T13:11:04.744Z,18.67
2019-04-07T13:14:10.255Z,19.23
2019-04-07T13:17:01.036Z,18.13
2019-04-07T13:19:53.447Z,18.30
2019-04-07T13:22:39.530Z,19.23
2019-04-07T13:25:29.186Z,19.10
2019-04-07T13:28:20.600Z,19.63
2019-04-07T13:30:59.437Z,18.47
2019-04-07T13:33:51.212Z,18.87
2019-04-07T13:36:42.787Z,19.70
2019-04-07T13:39:19.766Z,20.00
2019-04-07T13:41:57.924Z,19.83
2019-04-07T13:44:44.446Z,20.27
2019-04-07T13:47:30.524Z,20.37
2019-04-07T13:50:07.546Z,19.97
2019-04-07T13:53:02.914Z,20.10
2019-04-07T13:56:07.210Z,20.07
2019-04-07T13:58:53.301Z,19.70
2019-04-07T14:01:32.555Z,19.73
2019-04-07T14:04:27.888Z,18.67
2019-04-07T14:07:22.575Z,19.07
2019-04-07T14:10:11.328Z,18.50
2019-04-07T14:13:09.394Z,19.87
2019-04-07T14:16:12.790Z,19.23
2019-04-07T14:18:57.066Z,20.70
2019-04-07T14:21:48.300Z,19.70
2019-04-07T14:24:39.506Z,19.83
2019-04-07T14:27:14.292Z,19.80
2019-04-07T14:30:02.753Z,19.40
2019-04-07T14:32:57.097Z,19.37
2019-04-07T14:35:39.043Z,19.00
2019-04-07T14:38:21.256Z,19.10
2019-04-07T14:41:15.994Z,18.40
2019-04-07T14:44:03.093Z,18.80
2019-04-07T14:47:06.592Z,20.00
2019-04-07T14:49:53.194Z,19.60
2019-04-07T14:52:44.722Z,20.27
2019-04-07T14:55:32.564Z,21.70
2019-04-07T14:58:24.336Z,18.47
2019-04-07T15:01:30.703Z,18.63
2019-04-07T15:04:01.046Z,19.40
2019-04-07T15:06:33.265Z,18.10
2019-04-07T15:09:12.216Z,19.93
2019-04-07T15:11:47.345Z,19.90
2019-04-07T15:14:16.946Z,19.37
2019-04-07T15:16:46.309Z,20.70
2019-04-07T15:19:16.562Z,21.50
2019-04-07T15:21:46.353Z,20.73
2019-04-07T15:24:16.468Z,20.00
2019-04-07T15:26:48.942Z,20.87
2019-04-07T15:29:16.953Z,19.90
2019-04-07T15:31:49.030Z,21.70
2019-04-07T15:34:17.637Z,21.60
2019-04-07T15:36:48.445Z,21.10
2019-04-07T15:39:18.254Z,21.13
2019-04-07T15:41:47.812Z,22.07
2019-04-07T15:44:17.233Z,22.83
2019-04-07T15:46:52.388Z,22.13
2019-04-07T15:49:18.434Z,22.77
2019-04-07T15:51:48.700Z,22.87
2019-04-07T15:54:22.371Z,24.27
2019-04-07T15:56:50.176Z,24.60
2019-04-07T15:59:20.624Z,23.30
2019-04-07T16:01:50.171Z,24.33
2019-04-07T16:04:25.184Z,24.30
2019-04-07T16:06:51.509Z,24.27
2019-04-07T16:09:31.426Z,24.30
2019-04-07T16:11:53.206Z,23.93
2019-04-07T16:14:23.085Z,23.33
2019-04-07T16:16:53.638Z,23.60
2019-04-07T16:19:35.741Z,23.60
2019-04-07T16:21:54.928Z,21.80
2019-04-07T16:24:24.556Z,22.40
2019-04-07T16:26:54.701Z,22.83
2019-04-07T16:29:24.034Z,24.40
2019-04-07T16:31:55.777Z,23.67
2019-04-07T16:34:24.568Z,22.87
2019-04-07T16:36:57.241Z,24.30
2019-04-07T16:39:24.936Z,23.73
2019-04-07T16:41:54.309Z,22.90
2019-04-07T16:44:24.518Z,23.23
2019-04-07T16:46:56.606Z,22.30
2019-04-07T16:49:25.747Z,23.33
2019-04-07T16:51:58.351Z,23.93
2019-04-07T16:54:26.623Z,24.73
2019-04-07T16:56:58.137Z,24.60
2019-04-07T16:59:27.576Z,22.97
2019-04-07T17:01:57.014Z,24.27
2019-04-07T17:04:27.150Z,24.80
2019-04-07T17:07:02.853Z,24.60
2019-04-07T17:09:28.434Z,24.67
2019-04-07T17:11:59.030Z,24.10
2019-04-07T17:14:32.141Z,25.30
2019-04-07T17:17:00.262Z,26.07
2019-04-07T17:19:30.097Z,25.77
2019-04-07T17:22:00.728Z,25.37
2019-04-07T17:24:30.711Z,25.03
2019-04-07T17:27:02.886Z,27.30
2019-04-07T17:29:32.158Z,26.10
2019-04-07T17:32:02.600Z,27.40
2019-04-07T17:34:33.481Z,26.73
2019-04-07T17:37:04.003Z,27.60
2019-04-07T17:39:51.449Z,27.90
2019-04-07T17:42:25.011Z,27.30
2019-04-07T17:45:20.413Z,27.50
2019-04-07T17:48:07.168Z,28.57
2019-04-07T17:51:08.756Z,27.87
2019-04-07T17:53:55.777Z,29.23
2019-04-07T17:56:49.984Z,28.53
2019-04-07T17:59:38.917Z,28.27
2019-04-07T18:02:44.714Z,30.50
2019-04-07T18:05:38.730Z,29.90
2019-04-07T18:08:28.185Z,31.57
2019-04-07T18:11:32.796Z,31.40
2019-04-07T18:14:24.534Z,29.70
2019-04-07T18:17:11.341Z,29.47
2019-04-07T18:20:04.133Z,29.60
2019-04-07T18:22:51.716Z,29.17
2019-04-07T18:25:34.007Z,29.47
2019-04-07T18:28:09.077Z,29.87
2019-04-07T18:31:05.223Z,30.23
2019-04-07T18:33:50.011Z,30.77
2019-04-07T18:36:40.669Z,29.47
2019-04-07T18:39:27.825Z,31.30
2019-04-07T18:42:10.368Z,31.80
2019-04-07T18:44:55.407Z,31.77
2019-04-07T18:47:53.898Z,31.30
2019-04-07T18:50:53.337Z,32.07
2019-04-07T18:53:45.351Z,31.03
2019-04-07T18:56:32.514Z,30.70
2019-04-07T18:59:20.181Z,31.73
2019-04-07T19:02:14.062Z,29.87
2019-04-07T19:04:50.418Z,31.47
2019-04-07T19:07:27.207Z,33.83
2019-04-07T19:10:10.642Z,34.27
2019-04-07T19:12:49.211Z,35.90
2019-04-07T19:15:36.508Z,35.57
2019-04-07T19:18:20.474Z,34.27
2019-04-07T19:21:11.116Z,32.23
2019-04-07T19:24:09.835Z,32.37
2019-04-07T19:27:12.618Z,32.10
2019-04-07T19:29:46.432Z,33.30
2019-04-07T19:32:40.827Z,32.67
2019-04-07T19:35:31.161Z,32.40
2019-04-07T19:38:20.927Z,33.00
2019-04-07T19:41:02.836Z,32.77
2019-04-07T19:43:43.705Z,38.87
2019-04-07T19:46:28.782Z,43.80
2019-04-07T19:49:20.092Z,40.67
2019-04-07T19:52:07.090Z,60.43
2019-04-07T19:54:55.143Z,65.70
2019-04-07T19:57:47.012Z,52.80
2019-04-07T20:00:52.865Z,44.47
2019-04-07T20:03:39.190Z,44.40
2019-04-07T20:06:36.479Z,41.43
2019-04-07T20:09:27.850Z,39.87
2019-04-07T20:12:19.291Z,37.23
2019-04-07T20:15:08.879Z,36.83
2019-04-07T20:18:00.698Z,34.60
2019-04-07T20:20:49.079Z,33.87
2019-04-07T20:23:46.515Z,33.00
2019-04-07T20:26:35.030Z,32.90
2019-04-07T20:29:19.328Z,32.80
2019-04-07T20:31:57.063Z,31.67
2019-04-07T20:34:45.112Z,31.33
2019-04-07T20:37:23.702Z,32.17
2019-04-07T20:40:06.614Z,31.20
2019-04-07T20:42:51.854Z,31.20
2019-04-07T20:45:35.431Z,30.97
2019-04-07T20:48:32.330Z,31.10
2019-04-07T20:51:17.816Z,31.37
2019-04-07T20:54:05.585Z,30.90
2019-04-07T20:56:53.944Z,30.53
2019-04-07T20:59:53.771Z,31.20
2019-04-07T21:02:35.067Z,30.37
2019-04-07T21:05:25.690Z,30.87
2019-04-07T21:08:18.485Z,29.93
2019-04-07T21:11:01.480Z,28.37
2019-04-07T21:13:50.394Z,29.80
2019-04-07T21:16:38.718Z,32.70
2019-04-07T21:19:25.692Z,31.93
2019-04-07T21:22:16.880Z,31.13
2019-04-07T21:25:05.176Z,29.37
2019-04-07T21:28:07.327Z,27.67
2019-04-07T21:30:45.380Z,29.57
2019-04-07T21:33:25.720Z,28.87
2019-04-07T21:36:14.211Z,27.40
2019-04-07T21:38:58.294Z,26.80
2019-04-07T21:42:01.826Z,28.10
2019-04-07T21:45:03.959Z,26.90
2019-04-07T21:47:57.311Z,25.33
2019-04-07T21:50:57.114Z,26.13
2019-04-07T21:53:45.554Z,25.60
2019-04-07T21:56:34.747Z,25.23
2019-04-07T21:59:26.579Z,24.50
2019-04-07T22:02:17.849Z,23.70
2019-04-07T22:04:54.637Z,23.90
2019-04-07T22:07:42.095Z,23.37
2019-04-07T22:10:11.940Z,22.13
2019-04-07T22:12:42.246Z,22.03
2019-04-07T22:15:14.098Z,20.50
2019-04-07T22:17:43.718Z,20.20
2019-04-07T22:20:17.693Z,19.23
2019-04-07T22:22:44.797Z,18.60
2019-04-07T22:25:17.483Z,17.90
2019-04-07T22:27:48.366Z,17.13
2019-04-07T22:30:18.580Z,17.90
2019-04-07T22:32:50.951Z,17.13
2019-04-07T22:35:19.237Z,18.30
2019-04-07T22:37:50.257Z,16.87
2019-04-07T22:40:21.357Z,16.93
2019-04-07T22:42:50.678Z,15.37
2019-04-07T22:45:25.164Z,16.17
2019-04-07T22:47:52.665Z,15.77
2019-04-07T22:50:23.363Z,15.97
2019-04-07T22:52:53.332Z,16.07
2019-04-07T22:55:22.859Z,16.90
2019-04-07T22:57:52.131Z,16.33
2019-04-07T23:00:25.529Z,16.93
2019-04-07T23:02:55.349Z,17.17
2019-04-07T23:05:25.583Z,17.60
2019-04-07T23:07:55.068Z,17.60
2019-04-07T23:10:25.444Z,18.43
2019-04-07T23:12:55.255Z,18.70
2019-04-07T23:15:37.441Z,18.57
2019-04-07T23:17:55.673Z,19.33
2019-04-07T23:20:25.088Z,19.70
2019-04-07T23:22:54.410Z,20.17
2019-04-07T23:25:23.777Z,19.43
2019-04-07T23:27:54.248Z,19.53
2019-04-07T23:30:25.702Z,20.60
2019-04-07T23:32:55.679Z,20.77
2019-04-07T23:35:25.667Z,20.17
2019-04-07T23:37:55.310Z,20.90
2019-04-07T23:40:25.840Z,20.40
2019-04-07T23:42:55.182Z,20.87
2019-04-07T23:45:25.307Z,20.30
2019-04-07T23:47:54.852Z,20.70
2019-04-07T23:50:25.234Z,19.53
2019-04-07T23:52:54.520Z,20.03
2019-04-07T23:55:24.411Z,19.07
2019-04-07T23:57:54.256Z,19.13
